Airfield :
LOGIN :

Register | Disclaimer

   EN    FR    IT 

 










Legend :    VFR   Marginal VFR   IFR   Intensive IFR   Very Intensive IFR
Visi :
Ceiling :
>= 8 km
>= 3000ft
5 to 8 km
1000 to 3000 ft
1500m to 5 km
500 to 1000 ft
800 to 1500m
200 to 500 ft
< 800m
< 200 ft
Symbols :   Thunderstorms  Fog  Heavy snow  Heavy precipitations  Wind > 20 kt
SIGMETs :     Misc.  Thunderstorms  Icing  Turbulence  Mountain Waves  Volcanic Ashes






- Airport Elevation : 755 ft
- IATA code : DRS


EDDC - Dresden Klotzsche

CURRENT METAR :
  • 300150Z 27003KT 9999 BKN015 00/M01 Q1025

EXPIRED METARs :
  • 300120Z 27004KT 250V320 9999 BKN013 01/M00 Q1025
  • 300050Z 27003KT 240V310 9999 BKN013 01/M00 Q1025
  • 300020Z VRB02KT 9999 BKN013 BKN049 01/00 Q1025
  • 292350Z VRB02KT 9999 SCT013 BKN049 01/00 Q1025
  • 292320Z 28003KT 9999 FEW013 BKN049 01/00 Q1025

TAF TAF EDDC
Valid from the 30 at 00:00 until the 01 at 00:00 UTC


292300Z 3000/3024 28004KT 9999 BKN030
PROB30
TEMPO 3000/3009 BKN009
BECMG 3009/3011 19005KT
BECMG 3017/3019 17010KT



MET'MAP, your aeronautical weather chart ! - Copyright ORBIFLY December 2007 - Disclaimer

ORBIFLY MET'MAP TEAM :

Programming & Development : Alexandra Zaïnal
Concept & original design : Baudouin d'Aumeries
Assistance for programming : Marc-Olivier Méhu
Technical & hardware support : Manuel Goepfert

Contact : metmap@orbifly.com




SOURCES & CREDITS :

   NOAA